createdAt,value
2023-04-10T00:00:38.367Z,102162.38
2023-04-10T00:03:08.606Z,102158.03
2023-04-10T00:05:38.756Z,102160.75
2023-04-10T00:08:08.600Z,102155.41
2023-04-10T00:10:38.478Z,102155.41
2023-04-10T00:13:10.938Z,102149.25
2023-04-10T00:15:40.967Z,102148.34
2023-04-10T00:18:10.932Z,102150.97
2023-04-10T00:20:41.690Z,102146.53
2023-04-10T00:23:11.712Z,102142.16
2023-04-10T00:25:41.758Z,102136.94
2023-04-10T00:28:14.669Z,102133.41
2023-04-10T00:30:44.558Z,102121.91
2023-04-10T00:33:16.693Z,102127.97
2023-04-10T00:35:46.603Z,102123.56
2023-04-10T00:38:16.989Z,102122.53
2023-04-10T00:40:46.831Z,102116.28
2023-04-10T00:43:21.707Z,102109.22
2023-04-10T00:45:51.756Z,102112.66
2023-04-10T00:48:21.833Z,102100.25
2023-04-10T00:50:51.778Z,102102.00
2023-04-10T00:53:21.624Z,102098.38
2023-04-10T00:55:53.348Z,102090.31
2023-04-10T00:58:27.029Z,102084.88
2023-04-10T01:00:57.355Z,102082.06
2023-04-10T01:03:28.364Z,102078.47
2023-04-10T01:06:08.825Z,102080.88
2023-04-10T01:08:48.690Z,102086.94
2023-04-10T01:11:27.064Z,102080.69
2023-04-10T01:14:08.307Z,102081.50
2023-04-10T01:16:48.454Z,102065.59
2023-04-10T01:19:29.233Z,102066.31
2023-04-10T01:21:59.732Z,102063.59
2023-04-10T01:24:44.743Z,102063.41
2023-04-10T01:27:31.315Z,102063.19
2023-04-10T01:30:05.729Z,102050.72
2023-04-10T01:32:38.907Z,102048.66
2023-04-10T01:35:11.614Z,102045.03
2023-04-10T01:37:46.007Z,102051.09
2023-04-10T01:40:21.791Z,102043.06
2023-04-10T01:42:55.677Z,102041.22
2023-04-10T01:45:31.904Z,102039.44
2023-04-10T01:48:01.968Z,102031.38
2023-04-10T01:50:33.453Z,102032.19
2023-04-10T01:53:05.113Z,102032.00
2023-04-10T01:55:37.034Z,102027.47
2023-04-10T01:58:07.792Z,102027.19
2023-04-10T02:00:44.494Z,102025.38
2023-04-10T02:03:14.802Z,102026.16
2023-04-10T02:05:55.534Z,102027.88
2023-04-10T02:08:44.023Z,102023.47
2023-04-10T02:11:21.438Z,102016.41
2023-04-10T02:13:53.678Z,102021.47
2023-04-10T02:16:27.885Z,102011.69
2023-04-10T02:18:59.366Z,102016.03
2023-04-10T02:21:30.095Z,102010.69
2023-04-10T02:24:01.406Z,102002.63
2023-04-10T02:26:31.338Z,102005.19
2023-04-10T02:29:01.290Z,101999.72
2023-04-10T02:31:36.792Z,101997.03
2023-04-10T02:34:07.448Z,101991.59
2023-04-10T02:36:38.228Z,101984.53
2023-04-10T02:39:12.816Z,101994.81
2023-04-10T02:41:42.657Z,101987.50
2023-04-10T02:44:12.511Z,101980.34
2023-04-10T02:46:44.993Z,101981.13
2023-04-10T02:49:14.887Z,101994.16
2023-04-10T02:51:45.480Z,101986.31
2023-04-10T02:54:15.638Z,101987.00
2023-04-10T02:56:45.429Z,101983.38
2023-04-10T02:59:15.878Z,101983.28
2023-04-10T03:01:49.663Z,101986.78
2023-04-10T03:04:19.834Z,101983.28
2023-04-10T03:06:49.915Z,101988.50
2023-04-10T03:09:19.737Z,101989.41
2023-04-10T03:11:49.639Z,101981.38
2023-04-10T03:14:20.026Z,101986.59
2023-04-10T03:16:52.511Z,101989.22
2023-04-10T03:19:22.383Z,101989.34
2023-04-10T03:21:52.640Z,101990.22
2023-04-10T03:24:24.285Z,101992.03
2023-04-10T03:26:54.129Z,101987.59
2023-04-10T03:29:23.998Z,101981.56
2023-04-10T03:31:57.664Z,101972.91
2023-04-10T03:34:27.892Z,101978.16
2023-04-10T03:36:57.742Z,101976.44
2023-04-10T03:39:32.153Z,101976.53
2023-04-10T03:42:01.973Z,101984.28
2023-04-10T03:44:31.955Z,101976.31
2023-04-10T03:47:04.507Z,101983.28
2023-04-10T03:49:34.740Z,101979.75
2023-04-10T03:52:04.815Z,101963.16
2023-04-10T03:54:37.811Z,101961.25
2023-04-10T03:57:08.058Z,101953.97
2023-04-10T03:59:38.938Z,101948.69
2023-04-10T04:02:12.569Z,101943.13
2023-04-10T04:04:42.938Z,101932.38
2023-04-10T04:07:13.982Z,101933.09
2023-04-10T04:09:44.031Z,101932.06
2023-04-10T04:12:13.850Z,101926.72
2023-04-10T04:14:44.969Z,101922.19
2023-04-10T04:17:17.372Z,101910.75
2023-04-10T04:19:48.770Z,101909.75
2023-04-10T04:22:18.691Z,101907.72
2023-04-10T04:24:48.470Z,101902.41
2023-04-10T04:27:18.301Z,101902.19
2023-04-10T04:29:48.157Z,101900.50
2023-04-10T04:32:21.013Z,101899.59
2023-04-10T04:34:50.935Z,101895.28
2023-04-10T04:37:20.843Z,101895.28
2023-04-10T04:39:50.941Z,101889.94
2023-04-10T04:42:20.805Z,101884.81
2023-04-10T04:44:52.619Z,101883.16
2023-04-10T04:47:25.392Z,101882.47
2023-04-10T04:49:55.311Z,101884.19
2023-04-10T04:52:26.589Z,101874.53
2023-04-10T04:54:56.397Z,101880.78
2023-04-10T04:57:26.321Z,101881.75
2023-04-10T04:59:56.169Z,101880.97
2023-04-10T05:02:29.046Z,101877.63
2023-04-10T05:04:59.057Z,101877.63
2023-04-10T05:07:28.902Z,101876.91
2023-04-10T05:09:58.934Z,101884.13
2023-04-10T05:12:28.770Z,101887.94
2023-04-10T05:15:00.871Z,101889.88
2023-04-10T05:17:33.442Z,101887.53
2023-04-10T05:20:03.557Z,101884.31
2023-04-10T05:22:34.085Z,101888.13
2023-04-10T05:25:04.030Z,101886.69
2023-04-10T05:27:33.841Z,101875.59
2023-04-10T05:30:04.835Z,101878.41
2023-04-10T05:32:37.298Z,101872.44
2023-04-10T05:35:07.910Z,101872.91
2023-04-10T05:37:40.360Z,101873.09
2023-04-10T05:40:12.513Z,101871.66
2023-04-10T05:42:42.342Z,101870.22
2023-04-10T05:45:15.315Z,101872.28
2023-04-10T05:47:47.923Z,101861.19
2023-04-10T05:50:21.523Z,101864.09
2023-04-10T05:52:55.096Z,101860.03
2023-04-10T05:55:28.005Z,101862.84
2023-04-10T05:58:01.211Z,101860.59
2023-04-10T06:00:32.844Z,101853.91
2023-04-10T06:03:06.402Z,101857.81
2023-04-10T06:05:36.495Z,101854.63
2023-04-10T06:08:06.773Z,101856.72
2023-04-10T06:10:36.990Z,101851.09
2023-04-10T06:13:11.016Z,101847.28
2023-04-10T06:15:41.233Z,101847.88
2023-04-10T06:18:13.753Z,101843.50
2023-04-10T06:20:43.899Z,101850.53
2023-04-10T06:23:14.255Z,101846.19
2023-04-10T06:25:44.382Z,101837.25
2023-04-10T06:28:14.421Z,101829.00
2023-04-10T06:30:46.636Z,101824.25
2023-04-10T06:33:25.473Z,101828.16
2023-04-10T06:35:56.245Z,101816.19
2023-04-10T06:38:26.487Z,101819.06
2023-04-10T06:40:56.496Z,101816.69
2023-04-10T06:43:29.273Z,101814.25
2023-04-10T06:45:59.317Z,101810.13
2023-04-10T06:48:33.233Z,101806.22
2023-04-10T06:51:03.880Z,101806.75
2023-04-10T06:53:34.038Z,101797.03
2023-04-10T06:56:04.029Z,101797.28
2023-04-10T06:58:34.045Z,101798.03
2023-04-10T07:01:05.181Z,101792.50
2023-04-10T07:03:38.474Z,101786.88
2023-04-10T07:06:09.002Z,101790.69
2023-04-10T07:08:40.086Z,101789.03
2023-04-10T07:11:10.156Z,101788.28
2023-04-10T07:13:40.295Z,101784.19
2023-04-10T07:16:12.766Z,101775.06
2023-04-10T07:18:46.962Z,101769.81
2023-04-10T07:21:17.385Z,101766.47
2023-04-10T07:23:47.430Z,101756.03
2023-04-10T07:26:17.892Z,101756.06
2023-04-10T07:28:47.792Z,101748.19
2023-04-10T07:31:18.329Z,101734.75
2023-04-10T07:33:51.098Z,101742.50
2023-04-10T07:36:20.930Z,101731.59
2023-04-10T07:38:56.292Z,101725.00
2023-04-10T07:41:26.376Z,101721.03
2023-04-10T07:43:56.267Z,101727.81
2023-04-10T07:46:26.948Z,101726.66
2023-04-10T07:49:00.274Z,101719.38
2023-04-10T07:51:32.780Z,101712.97
2023-04-10T07:54:02.593Z,101707.38
2023-04-10T07:56:33.100Z,101700.69
2023-04-10T07:59:03.732Z,101689.63
2023-04-10T08:01:35.554Z,101688.19
2023-04-10T08:04:08.500Z,101689.41
2023-04-10T08:06:47.236Z,101686.19
2023-04-10T08:09:18.238Z,101676.78
2023-04-10T08:11:48.413Z,101676.09
2023-04-10T08:14:18.707Z,101670.09
2023-04-10T08:16:48.818Z,101665.69
2023-04-10T08:19:22.147Z,101663.03
2023-04-10T08:21:52.033Z,101660.56
2023-04-10T08:24:23.172Z,101650.41
2023-04-10T08:26:53.072Z,101654.31
2023-04-10T08:31:54.832Z,101651.44
2023-04-10T08:34:27.409Z,101643.88
2023-04-10T08:36:57.460Z,101634.41
2023-04-10T08:39:27.642Z,101631.88
2023-04-10T08:41:57.697Z,101628.47
2023-04-10T08:44:27.561Z,101629.41
2023-04-10T08:47:01.742Z,101633.84
2023-04-10T08:49:45.420Z,101627.78
2023-04-10T08:52:18.566Z,101619.13
2023-04-10T08:54:59.266Z,101624.63
2023-04-10T08:57:29.521Z,101620.44
2023-04-10T09:00:06.738Z,101618.75
2023-04-10T09:02:46.360Z,101611.72
2023-04-10T09:05:18.965Z,101615.28
2023-04-10T09:07:48.805Z,101609.00
2023-04-10T09:10:18.958Z,101604.66
2023-04-10T09:12:50.434Z,101594.97
2023-04-10T09:15:20.299Z,101587.03
2023-04-10T09:18:01.580Z,101588.03
2023-04-10T09:20:35.324Z,101587.16
2023-04-10T09:23:05.198Z,101580.09
2023-04-10T09:25:39.210Z,101582.84
2023-04-10T09:28:11.532Z,101573.13
2023-04-10T09:30:43.529Z,101574.06
2023-04-10T09:33:27.839Z,101558.28
2023-04-10T09:36:01.771Z,101558.34
2023-04-10T09:38:36.294Z,101547.72
2023-04-10T09:41:10.953Z,101544.28
2023-04-10T09:43:43.668Z,101538.09
2023-04-10T09:46:13.592Z,101538.16
2023-04-10T09:48:59.705Z,101533.78
2023-04-10T09:51:36.700Z,101531.13
2023-04-10T09:54:07.109Z,101525.91
2023-04-10T09:56:41.915Z,101505.59
2023-04-10T09:59:12.076Z,101504.72
2023-04-10T10:01:42.910Z,101506.47
2023-04-10T10:04:16.197Z,101493.28
2023-04-10T10:06:49.357Z,101486.28
2023-04-10T10:09:19.379Z,101489.91
2023-04-10T10:11:51.596Z,101474.91
2023-04-10T10:14:25.874Z,101473.22
2023-04-10T10:17:02.591Z,101465.25
2023-04-10T10:19:36.562Z,101461.72
2023-04-10T10:22:10.433Z,101449.28
2023-04-10T10:24:44.366Z,101443.06
2023-04-10T10:27:15.123Z,101433.31
2023-04-10T10:29:47.058Z,101430.66
2023-04-10T10:32:19.568Z,101427.13
2023-04-10T10:34:50.190Z,101426.19
2023-04-10T10:37:23.122Z,101412.03
2023-04-10T10:40:02.415Z,101412.88
2023-04-10T10:42:39.674Z,101414.63
2023-04-10T10:45:15.720Z,101411.94
2023-04-10T10:48:01.896Z,101411.06
2023-04-10T10:50:54.437Z,101406.63
2023-04-10T10:53:41.137Z,101401.31
2023-04-10T10:56:38.038Z,101393.31
2023-04-10T10:59:07.868Z,101396.81
2023-04-10T11:01:39.996Z,101380.81
2023-04-10T11:04:39.752Z,101379.94
2023-04-10T11:07:09.748Z,101366.63
2023-04-10T11:09:54.706Z,101361.28
2023-04-10T11:12:31.468Z,101367.47
2023-04-10T11:15:03.263Z,101357.72
2023-04-10T11:17:52.598Z,101351.50
2023-04-10T11:20:27.552Z,101347.06
2023-04-10T11:23:14.262Z,101340.88
2023-04-10T11:25:54.794Z,101340.00
2023-04-10T11:28:37.961Z,101324.13
2023-04-10T11:31:22.284Z,101323.31
2023-04-10T11:33:57.770Z,101314.44
2023-04-10T11:36:30.919Z,101319.75
2023-04-10T11:39:09.094Z,101305.50
2023-04-10T11:41:43.157Z,101298.44
2023-04-10T11:44:16.170Z,101292.22
2023-04-10T11:46:48.042Z,101292.25
2023-04-10T11:49:22.172Z,101287.84
2023-04-10T11:51:53.395Z,101274.59
2023-04-10T11:54:26.186Z,101264.81
2023-04-10T11:57:03.750Z,101249.03
2023-04-10T11:59:35.297Z,101254.47
2023-04-10T12:02:10.451Z,101250.19
2023-04-10T12:04:40.720Z,101250.34
2023-04-10T12:07:11.552Z,101248.78
2023-04-10T12:09:41.745Z,101230.34
2023-04-10T12:12:15.496Z,101239.34
2023-04-10T12:14:46.891Z,101230.69
2023-04-10T12:17:17.126Z,101219.28
2023-04-10T12:19:47.389Z,101221.97
2023-04-10T12:22:17.374Z,101209.66
2023-04-10T12:24:49.410Z,101205.25
2023-04-10T12:27:23.837Z,101200.81
2023-04-10T12:29:54.834Z,101191.97
2023-04-10T12:32:25.216Z,101189.25
2023-04-10T12:34:57.675Z,101180.41
2023-04-10T12:37:27.940Z,101168.91
2023-04-10T12:40:11.375Z,101168.00
2023-04-10T12:42:49.842Z,101171.50
2023-04-10T12:45:19.717Z,101162.56
2023-04-10T12:47:52.019Z,101165.16
2023-04-10T12:50:23.693Z,101161.59
2023-04-10T12:53:07.740Z,101149.13
2023-04-10T12:55:37.766Z,101141.13
2023-04-10T12:58:23.042Z,101136.63
2023-04-10T13:00:53.080Z,101133.97
2023-04-10T13:03:23.031Z,101131.28
2023-04-10T13:05:53.620Z,101133.03
2023-04-10T13:08:24.123Z,101125.94
2023-04-10T13:10:55.217Z,101116.16
2023-04-10T13:13:28.425Z,101115.28
2023-04-10T13:15:58.512Z,101100.22
2023-04-10T13:18:28.427Z,101096.63
2023-04-10T13:20:58.215Z,101086.88
2023-04-10T13:23:28.053Z,101090.38
2023-04-10T13:26:03.125Z,101078.03
2023-04-10T13:28:37.117Z,101072.66
2023-04-10T13:31:07.080Z,101059.38
2023-04-10T13:33:36.940Z,101047.91
2023-04-10T13:36:07.382Z,101047.00
2023-04-10T13:38:37.262Z,101041.69
2023-04-10T13:41:07.633Z,101045.22
2023-04-10T13:43:40.298Z,101021.28
2023-04-10T13:46:10.644Z,101019.44
2023-04-10T13:48:41.868Z,101014.09
2023-04-10T13:51:13.914Z,101009.69
2023-04-10T13:53:43.787Z,101002.56
2023-04-10T13:56:13.629Z,100999.00
2023-04-10T13:58:48.762Z,100993.69
2023-04-10T14:01:20.198Z,100983.03
2023-04-10T14:03:50.294Z,100980.34
2023-04-10T14:06:20.207Z,100982.03
2023-04-10T14:08:50.449Z,100966.13
2023-04-10T14:11:20.286Z,100966.97
2023-04-10T14:13:52.771Z,100961.63
2023-04-10T14:16:22.869Z,100956.28
2023-04-10T14:18:52.979Z,100951.84
2023-04-10T14:21:23.050Z,100938.53
2023-04-10T14:23:52.829Z,100938.50
2023-04-10T14:26:28.000Z,100940.28
2023-04-10T14:29:00.431Z,100931.41
2023-04-10T14:31:30.351Z,100935.81
2023-04-10T14:34:00.197Z,100926.03
2023-04-10T14:36:33.069Z,100928.66
2023-04-10T14:39:07.724Z,100926.00
2023-04-10T14:41:37.577Z,100920.66
2023-04-10T14:44:09.995Z,100929.47
2023-04-10T14:46:40.280Z,100926.78
2023-04-10T14:49:11.974Z,100928.53
2023-04-10T14:51:41.923Z,100929.38
2023-04-10T14:54:11.735Z,100939.03
2023-04-10T14:56:41.674Z,100929.19
2023-04-10T14:59:14.910Z,100924.59
2023-04-10T15:01:44.933Z,100925.38
2023-04-10T15:04:14.964Z,100927.94
2023-04-10T15:06:44.819Z,100916.34
2023-04-10T15:09:14.726Z,100904.75
2023-04-10T15:11:44.554Z,100898.41
2023-04-10T15:14:17.019Z,100893.00
2023-04-10T15:16:47.604Z,100892.91
2023-04-10T15:19:17.466Z,100891.03
2023-04-10T15:21:47.270Z,100898.88
2023-04-10T15:24:20.216Z,100895.22
2023-04-10T15:26:50.392Z,100891.59
2023-04-10T15:29:22.910Z,100886.22
2023-04-10T15:31:52.764Z,100882.56
2023-04-10T15:34:22.680Z,100871.84
2023-04-10T15:36:52.468Z,100872.63
2023-04-10T15:39:25.354Z,100860.19
2023-04-10T15:41:56.098Z,100858.31
2023-04-10T15:44:30.892Z,100851.16
2023-04-10T15:47:00.779Z,100844.03
2023-04-10T15:49:37.712Z,100836.88
2023-04-10T15:52:08.976Z,100829.78
2023-04-10T15:54:38.825Z,100820.91
2023-04-10T15:57:08.755Z,100817.34
2023-04-10T15:59:41.234Z,100815.53
2023-04-10T16:02:11.280Z,100812.84
2023-04-10T16:04:41.339Z,100816.31
2023-04-10T16:07:13.196Z,100806.50
2023-04-10T16:09:42.989Z,100809.91
2023-04-10T16:12:14.189Z,100805.41
2023-04-10T16:14:48.175Z,100799.09
2023-04-10T16:17:18.056Z,100795.47
2023-04-10T16:19:47.954Z,100790.13
2023-04-10T16:22:17.802Z,100791.84
2023-04-10T16:24:47.609Z,100787.38
2023-04-10T16:27:20.459Z,100790.81
2023-04-10T16:29:52.984Z,100783.63
2023-04-10T16:32:23.353Z,100783.56
2023-04-10T16:34:53.278Z,100775.53
2023-04-10T16:37:23.121Z,100769.22
2023-04-10T16:39:53.001Z,100780.56
2023-04-10T16:42:27.436Z,100762.84
2023-04-10T16:45:02.271Z,100765.38
2023-04-10T16:47:32.248Z,100771.44
2023-04-10T16:50:02.101Z,100766.88
2023-04-10T16:52:32.407Z,100753.56
2023-04-10T16:55:02.252Z,100737.69
2023-04-10T16:57:32.335Z,100721.69
2023-04-10T17:00:04.944Z,100725.03
2023-04-10T17:02:35.672Z,100719.72
2023-04-10T17:05:05.579Z,100712.59
2023-04-10T17:07:35.543Z,100721.28
2023-04-10T17:10:05.366Z,100715.09
2023-04-10T17:12:35.215Z,100715.91
2023-04-10T17:15:08.564Z,100706.13
2023-04-10T17:17:38.448Z,100706.06
2023-04-10T17:20:13.193Z,100696.34
2023-04-10T17:22:43.191Z,100703.34
2023-04-10T17:25:13.925Z,100698.06
2023-04-10T17:27:43.832Z,100696.25
2023-04-10T17:30:19.794Z,100698.91
2023-04-10T17:32:49.725Z,100698.91
2023-04-10T17:35:19.661Z,100691.03
2023-04-10T17:37:49.513Z,100691.06
2023-04-10T17:40:21.272Z,100692.88
2023-04-10T17:42:51.220Z,100689.34
2023-04-10T17:45:23.842Z,100691.06
2023-04-10T17:47:53.805Z,100688.41
2023-04-10T17:50:23.972Z,100691.00
2023-04-10T17:52:56.826Z,100681.25
2023-04-10T17:55:27.808Z,100691.75
2023-04-10T17:57:59.952Z,100674.09
2023-04-10T18:00:32.808Z,100686.38
2023-04-10T18:03:04.425Z,100691.59
2023-04-10T18:05:36.941Z,100689.75
2023-04-10T18:08:08.138Z,100681.81
2023-04-10T18:10:38.072Z,100671.19
2023-04-10T18:13:09.275Z,100670.25
2023-04-10T18:15:41.666Z,100658.78
2023-04-10T18:18:11.528Z,100637.66
2023-04-10T18:20:41.404Z,100638.50
2023-04-10T18:23:11.311Z,100625.25
2023-04-10T18:25:45.696Z,100627.88
2023-04-10T18:28:16.984Z,100639.31
2023-04-10T18:30:50.688Z,100631.38
2023-04-10T18:33:24.052Z,100631.38
2023-04-10T18:35:58.373Z,100623.47
2023-04-10T18:38:31.295Z,100634.84
2023-04-10T18:41:03.461Z,100631.28
2023-04-10T18:43:33.310Z,100633.84
2023-04-10T18:46:07.342Z,100632.03
2023-04-10T18:48:37.900Z,100635.56
2023-04-10T18:51:07.943Z,100629.41
2023-04-10T18:53:37.754Z,100613.53
2023-04-10T18:56:08.016Z,100610.03
2023-04-10T18:58:38.437Z,100619.69
2023-04-10T19:01:11.953Z,100607.31
2023-04-10T19:03:41.895Z,100602.03
2023-04-10T19:06:12.445Z,100607.25
2023-04-10T19:08:42.269Z,100607.25
2023-04-10T19:11:13.328Z,100608.13
2023-04-10T19:13:43.194Z,100602.84
2023-04-10T19:16:19.717Z,100605.50
2023-04-10T19:18:49.809Z,100612.47
2023-04-10T19:21:21.223Z,100599.28
2023-04-10T19:23:51.608Z,100601.03
2023-04-10T19:26:22.277Z,100586.97
2023-04-10T19:28:52.185Z,100589.56
2023-04-10T19:31:34.202Z,100576.44
2023-04-10T19:34:09.364Z,100586.97
2023-04-10T19:36:39.372Z,100586.09
2023-04-10T19:39:09.288Z,100583.41
2023-04-10T19:41:42.404Z,100560.50
2023-04-10T19:44:12.405Z,100569.28
2023-04-10T19:46:44.886Z,100571.91
2023-04-10T19:49:15.538Z,100570.13
2023-04-10T19:51:46.154Z,100556.88
2023-04-10T19:54:16.005Z,100559.50
2023-04-10T19:56:45.940Z,100546.38
2023-04-10T19:59:15.795Z,100543.69
2023-04-10T20:01:48.836Z,100541.09
2023-04-10T20:04:19.009Z,100550.78
2023-04-10T20:06:49.523Z,100545.50
2023-04-10T20:09:19.324Z,100538.44
2023-04-10T20:11:49.135Z,100539.25
2023-04-10T20:14:18.923Z,100543.63
2023-04-10T20:16:51.397Z,100536.59
2023-04-10T20:19:21.411Z,100542.75
2023-04-10T20:21:51.212Z,100534.84
2023-04-10T20:24:21.070Z,100538.38
2023-04-10T20:26:50.971Z,100524.31
2023-04-10T20:29:20.789Z,100533.13
2023-04-10T20:31:53.205Z,100533.97
2023-04-10T20:34:23.077Z,100516.34
2023-04-10T20:36:52.899Z,100507.56
2023-04-10T20:39:26.662Z,100514.56
2023-04-10T20:41:57.453Z,100512.72
2023-04-10T20:44:27.509Z,100510.03
2023-04-10T20:47:00.006Z,100507.41
2023-04-10T20:49:30.107Z,100510.91
2023-04-10T20:52:00.036Z,100518.75
2023-04-10T20:54:31.380Z,100518.69
2023-04-10T20:57:02.013Z,100508.97
2023-04-10T20:59:32.194Z,100519.41
2023-04-10T21:02:04.661Z,100520.22
2023-04-10T21:04:34.973Z,100513.13
2023-04-10T21:07:07.093Z,100511.22
2023-04-10T21:09:36.889Z,100510.28
2023-04-10T21:12:07.533Z,100502.38
2023-04-10T21:14:37.316Z,100500.50
2023-04-10T21:17:09.818Z,100503.03
2023-04-10T21:19:39.654Z,100498.59
2023-04-10T21:22:10.496Z,100496.81
2023-04-10T21:24:40.368Z,100497.63
2023-04-10T21:27:10.401Z,100495.81
2023-04-10T21:29:40.205Z,100497.47
2023-04-10T21:32:12.641Z,100495.63
2023-04-10T21:34:42.478Z,100501.72
2023-04-10T21:37:12.313Z,100495.56
2023-04-10T21:39:45.791Z,100499.03
2023-04-10T21:42:15.656Z,100499.03
2023-04-10T21:44:45.489Z,100496.38
2023-04-10T21:47:17.934Z,100499.09
2023-04-10T21:49:47.816Z,100490.25
2023-04-10T21:52:17.619Z,100493.78
2023-04-10T21:54:47.437Z,100491.13
2023-04-10T21:57:17.238Z,100485.91
2023-04-10T21:59:47.056Z,100479.78
2023-04-10T22:02:21.217Z,100477.16
2023-04-10T22:04:54.468Z,100469.22
2023-04-10T22:07:24.832Z,100474.44
2023-04-10T22:09:54.609Z,100482.28
2023-04-10T22:12:24.417Z,100485.75
2023-04-10T22:14:54.299Z,100480.47
2023-04-10T22:17:27.407Z,100491.00
2023-04-10T22:19:57.303Z,100490.94
2023-04-10T22:22:27.238Z,100492.66
2023-04-10T22:24:57.044Z,100490.91
2023-04-10T22:27:27.042Z,100478.59
2023-04-10T22:30:03.208Z,100482.13
2023-04-10T22:32:39.966Z,100476.84
2023-04-10T22:35:11.248Z,100473.28
2023-04-10T22:37:41.080Z,100471.47
2023-04-10T22:40:15.246Z,100466.19
2023-04-10T22:42:47.256Z,100459.06
2023-04-10T22:45:17.519Z,100464.28
2023-04-10T22:47:49.930Z,100463.38
2023-04-10T22:50:20.010Z,100457.22
2023-04-10T22:52:49.940Z,100464.19
2023-04-10T22:55:20.137Z,100464.13
2023-04-10T22:57:51.217Z,100465.88
2023-04-10T23:00:21.393Z,100457.03
2023-04-10T23:02:53.872Z,100448.25
2023-04-10T23:05:23.726Z,100457.03
2023-04-10T23:07:53.531Z,100456.09
2023-04-10T23:10:23.338Z,100446.44
2023-04-10T23:12:53.134Z,100443.81
2023-04-10T23:15:23.161Z,100437.66
2023-04-10T23:17:56.045Z,100437.66
2023-04-10T23:20:25.894Z,100440.31
2023-04-10T23:22:57.705Z,100430.66
2023-04-10T23:25:27.775Z,100432.41
2023-04-10T23:27:59.620Z,100429.78
2023-04-10T23:30:30.278Z,100428.91
2023-04-10T23:33:03.059Z,100430.66
2023-04-10T23:35:33.473Z,100428.06
2023-04-10T23:38:03.347Z,100438.63
2023-04-10T23:40:33.141Z,100437.69
2023-04-10T23:43:03.005Z,100432.41
2023-04-10T23:45:32.832Z,100435.88
2023-04-10T23:48:06.102Z,100442.88
2023-04-10T23:50:35.982Z,100446.38
2023-04-10T23:53:08.794Z,100448.06
2023-04-10T23:55:38.827Z,100443.63
2023-04-10T23:58:09.430Z,100438.28
